sensor_id;sensor_type;location;lat;lon;timestamp;P1;durP1;ratioP1;P2;durP2;ratioP2
21527;SDS011;10925;49.102;-0.370;2022-07-10T00:00:44;3.65;;;2.80;;
21527;SDS011;10925;49.102;-0.370;2022-07-10T00:03:11;5.65;;;2.78;;
21527;SDS011;10925;49.102;-0.370;2022-07-10T00:05:38;5.10;;;2.78;;
21527;SDS011;10925;49.102;-0.370;2022-07-10T00:08:03;6.07;;;3.13;;
21527;SDS011;10925;49.102;-0.370;2022-07-10T00:10:30;3.75;;;2.75;;
21527;SDS011;10925;49.102;-0.370;2022-07-10T00:12:57;3.92;;;3.30;;
21527;SDS011;10925;49.102;-0.370;2022-07-10T00:15:24;7.78;;;2.92;;
21527;SDS011;10925;49.102;-0.370;2022-07-10T00:17:50;4.10;;;3.20;;
21527;SDS011;10925;49.102;-0.370;2022-07-10T00:20:17;5.10;;;2.97;;
21527;SDS011;10925;49.102;-0.370;2022-07-10T00:22:43;4.75;;;3.13;;
21527;SDS011;10925;49.102;-0.370;2022-07-10T00:25:10;4.70;;;3.13;;
21527;SDS011;10925;49.102;-0.370;2022-07-10T00:27:37;5.30;;;3.65;;
21527;SDS011;10925;49.102;-0.370;2022-07-10T00:30:04;5.55;;;3.70;;
21527;SDS011;10925;49.102;-0.370;2022-07-10T00:32:31;6.20;;;4.00;;
21527;SDS011;10925;49.102;-0.370;2022-07-10T00:34:58;5.13;;;3.72;;
21527;SDS011;10925;49.102;-0.370;2022-07-10T00:37:24;4.93;;;4.45;;
21527;SDS011;10925;49.102;-0.370;2022-07-10T00:39:51;4.10;;;3.70;;
21527;SDS011;10925;49.102;-0.370;2022-07-10T00:42:18;6.15;;;4.10;;
21527;SDS011;10925;49.102;-0.370;2022-07-10T00:44:45;7.13;;;4.57;;
21527;SDS011;10925;49.102;-0.370;2022-07-10T00:47:11;5.07;;;4.03;;
21527;SDS011;10925;49.102;-0.370;2022-07-10T00:49:38;10.88;;;5.55;;
21527;SDS011;10925;49.102;-0.370;2022-07-10T00:52:07;7.15;;;5.20;;
21527;SDS011;10925;49.102;-0.370;2022-07-10T00:54:37;6.13;;;5.53;;
21527;SDS011;10925;49.102;-0.370;2022-07-10T00:57:04;9.63;;;6.25;;
21527;SDS011;10925;49.102;-0.370;2022-07-10T00:59:34;9.65;;;6.57;;
21527;SDS011;10925;49.102;-0.370;2022-07-10T01:02:04;8.25;;;6.13;;
21527;SDS011;10925;49.102;-0.370;2022-07-10T01:04:32;8.52;;;6.72;;
21527;SDS011;10925;49.102;-0.370;2022-07-10T01:06:58;10.05;;;7.50;;
21527;SDS011;10925;49.102;-0.370;2022-07-10T01:09:25;9.13;;;7.30;;
21527;SDS011;10925;49.102;-0.370;2022-07-10T01:11:51;7.63;;;6.93;;
21527;SDS011;10925;49.102;-0.370;2022-07-10T01:14:17;14.40;;;8.23;;
21527;SDS011;10925;49.102;-0.370;2022-07-10T01:16:42;8.95;;;7.32;;
21527;SDS011;10925;49.102;-0.370;2022-07-10T01:19:08;11.20;;;8.00;;
21527;SDS011;10925;49.102;-0.370;2022-07-10T01:21:35;8.77;;;6.85;;
21527;SDS011;10925;49.102;-0.370;2022-07-10T01:24:06;10.75;;;6.00;;
21527;SDS011;10925;49.102;-0.370;2022-07-10T01:26:34;7.43;;;6.47;;
21527;SDS011;10925;49.102;-0.370;2022-07-10T01:29:02;8.50;;;6.55;;
21527;SDS011;10925;49.102;-0.370;2022-07-10T01:31:29;12.40;;;6.03;;
21527;SDS011;10925;49.102;-0.370;2022-07-10T01:33:56;7.00;;;5.97;;
21527;SDS011;10925;49.102;-0.370;2022-07-10T01:36:22;7.50;;;6.32;;
21527;SDS011;10925;49.102;-0.370;2022-07-10T01:38:52;6.82;;;5.95;;
21527;SDS011;10925;49.102;-0.370;2022-07-10T01:41:19;6.57;;;5.35;;
21527;SDS011;10925;49.102;-0.370;2022-07-10T01:43:46;6.68;;;5.65;;
21527;SDS011;10925;49.102;-0.370;2022-07-10T01:46:14;6.63;;;5.57;;
21527;SDS011;10925;49.102;-0.370;2022-07-10T01:48:41;6.80;;;4.82;;
21527;SDS011;10925;49.102;-0.370;2022-07-10T01:51:09;9.90;;;5.28;;
21527;SDS011;10925;49.102;-0.370;2022-07-10T01:53:34;5.10;;;4.60;;
21527;SDS011;10925;49.102;-0.370;2022-07-10T01:56:02;6.63;;;4.50;;
21527;SDS011;10925;49.102;-0.370;2022-07-10T01:58:29;6.32;;;4.15;;
21527;SDS011;10925;49.102;-0.370;2022-07-10T02:00:56;6.85;;;4.63;;
21527;SDS011;10925;49.102;-0.370;2022-07-10T02:03:23;9.30;;;4.50;;
21527;SDS011;10925;49.102;-0.370;2022-07-10T02:06:08;5.95;;;4.75;;
21527;SDS011;10925;49.102;-0.370;2022-07-10T02:08:35;6.15;;;4.65;;
21527;SDS011;10925;49.102;-0.370;2022-07-10T02:11:02;7.13;;;4.30;;
21527;SDS011;10925;49.102;-0.370;2022-07-10T02:13:28;7.47;;;4.55;;
21527;SDS011;10925;49.102;-0.370;2022-07-10T02:15:55;9.02;;;5.05;;
21527;SDS011;10925;49.102;-0.370;2022-07-10T02:18:22;7.40;;;4.68;;
21527;SDS011;10925;49.102;-0.370;2022-07-10T02:20:50;6.82;;;5.20;;
21527;SDS011;10925;49.102;-0.370;2022-07-10T02:23:17;8.55;;;5.95;;
21527;SDS011;10925;49.102;-0.370;2022-07-10T02:25:43;7.45;;;6.00;;
21527;SDS011;10925;49.102;-0.370;2022-07-10T02:28:10;8.75;;;6.43;;
21527;SDS011;10925;49.102;-0.370;2022-07-10T02:30:37;7.97;;;6.35;;
21527;SDS011;10925;49.102;-0.370;2022-07-10T02:33:04;7.10;;;6.40;;
21527;SDS011;10925;49.102;-0.370;2022-07-10T02:35:30;8.43;;;5.60;;
21527;SDS011;10925;49.102;-0.370;2022-07-10T02:37:57;7.35;;;5.90;;
21527;SDS011;10925;49.102;-0.370;2022-07-10T02:40:24;9.10;;;6.07;;
21527;SDS011;10925;49.102;-0.370;2022-07-10T02:42:51;6.60;;;5.47;;
21527;SDS011;10925;49.102;-0.370;2022-07-10T02:45:17;7.38;;;5.78;;
21527;SDS011;10925;49.102;-0.370;2022-07-10T02:47:44;6.95;;;5.63;;
21527;SDS011;10925;49.102;-0.370;2022-07-10T02:50:09;6.15;;;5.20;;
21527;SDS011;10925;49.102;-0.370;2022-07-10T02:52:36;9.15;;;5.30;;
21527;SDS011;10925;49.102;-0.370;2022-07-10T02:55:03;5.90;;;5.22;;
21527;SDS011;10925;49.102;-0.370;2022-07-10T02:57:30;4.97;;;4.32;;
21527;SDS011;10925;49.102;-0.370;2022-07-10T02:59:56;5.38;;;4.45;;
21527;SDS011;10925;49.102;-0.370;2022-07-10T03:02:23;5.60;;;4.57;;
21527;SDS011;10925;49.102;-0.370;2022-07-10T03:04:50;8.13;;;5.22;;
21527;SDS011;10925;49.102;-0.370;2022-07-10T03:07:16;4.93;;;4.43;;
21527;SDS011;10925;49.102;-0.370;2022-07-10T03:09:43;7.05;;;5.15;;
21527;SDS011;10925;49.102;-0.370;2022-07-10T03:12:10;5.50;;;4.50;;
21527;SDS011;10925;49.102;-0.370;2022-07-10T03:14:37;5.53;;;4.53;;
21527;SDS011;10925;49.102;-0.370;2022-07-10T03:17:03;5.80;;;4.55;;
21527;SDS011;10925;49.102;-0.370;2022-07-10T03:19:29;5.70;;;4.63;;
21527;SDS011;10925;49.102;-0.370;2022-07-10T03:21:56;5.68;;;5.15;;
21527;SDS011;10925;49.102;-0.370;2022-07-10T03:24:23;9.48;;;5.28;;
21527;SDS011;10925;49.102;-0.370;2022-07-10T03:26:48;5.88;;;4.82;;
21527;SDS011;10925;49.102;-0.370;2022-07-10T03:29:15;6.47;;;5.20;;
21527;SDS011;10925;49.102;-0.370;2022-07-10T03:31:48;8.13;;;6.00;;
21527;SDS011;10925;49.102;-0.370;2022-07-10T03:34:14;7.25;;;5.95;;
21527;SDS011;10925;49.102;-0.370;2022-07-10T03:36:41;6.63;;;5.70;;
21527;SDS011;10925;49.102;-0.370;2022-07-10T03:39:08;8.48;;;5.57;;
21527;SDS011;10925;49.102;-0.370;2022-07-10T03:41:35;9.75;;;5.32;;
21527;SDS011;10925;49.102;-0.370;2022-07-10T03:44:01;7.30;;;6.00;;
21527;SDS011;10925;49.102;-0.370;2022-07-10T03:46:28;7.47;;;6.13;;
21527;SDS011;10925;49.102;-0.370;2022-07-10T03:48:55;7.15;;;6.30;;
21527;SDS011;10925;49.102;-0.370;2022-07-10T03:51:21;7.75;;;6.95;;
21527;SDS011;10925;49.102;-0.370;2022-07-10T03:53:48;9.80;;;7.13;;
21527;SDS011;10925;49.102;-0.370;2022-07-10T03:56:14;8.80;;;7.90;;
21527;SDS011;10925;49.102;-0.370;2022-07-10T03:59:00;9.45;;;8.23;;
21527;SDS011;10925;49.102;-0.370;2022-07-10T04:01:27;12.75;;;8.13;;
21527;SDS011;10925;49.102;-0.370;2022-07-10T04:03:54;10.45;;;8.00;;
21527;SDS011;10925;49.102;-0.370;2022-07-10T04:06:20;9.65;;;8.43;;
21527;SDS011;10925;49.102;-0.370;2022-07-10T04:08:47;12.57;;;8.70;;
21527;SDS011;10925;49.102;-0.370;2022-07-10T04:11:14;9.43;;;7.90;;
21527;SDS011;10925;49.102;-0.370;2022-07-10T04:13:41;9.48;;;8.15;;
21527;SDS011;10925;49.102;-0.370;2022-07-10T04:16:08;9.32;;;7.72;;
21527;SDS011;10925;49.102;-0.370;2022-07-10T04:18:39;13.63;;;8.35;;
21527;SDS011;10925;49.102;-0.370;2022-07-10T04:21:07;13.82;;;8.00;;
21527;SDS011;10925;49.102;-0.370;2022-07-10T04:23:34;9.30;;;7.78;;
21527;SDS011;10925;49.102;-0.370;2022-07-10T04:26:01;8.23;;;7.30;;
21527;SDS011;10925;49.102;-0.370;2022-07-10T04:28:27;8.15;;;7.30;;
21527;SDS011;10925;49.102;-0.370;2022-07-10T04:30:53;10.80;;;7.85;;
21527;SDS011;10925;49.102;-0.370;2022-07-10T04:36:07;8.23;;;7.35;;
21527;SDS011;10925;49.102;-0.370;2022-07-10T04:38:32;8.27;;;6.97;;
21527;SDS011;10925;49.102;-0.370;2022-07-10T04:40:58;9.77;;;6.90;;
21527;SDS011;10925;49.102;-0.370;2022-07-10T04:43:23;8.02;;;7.00;;
21527;SDS011;10925;49.102;-0.370;2022-07-10T04:45:50;11.43;;;6.68;;
21527;SDS011;10925;49.102;-0.370;2022-07-10T04:48:17;6.88;;;6.18;;
21527;SDS011;10925;49.102;-0.370;2022-07-10T04:50:44;6.85;;;6.00;;
21527;SDS011;10925;49.102;-0.370;2022-07-10T04:53:10;7.60;;;6.32;;
21527;SDS011;10925;49.102;-0.370;2022-07-10T04:55:38;9.98;;;4.90;;
21527;SDS011;10925;49.102;-0.370;2022-07-10T04:58:05;8.60;;;5.00;;
21527;SDS011;10925;49.102;-0.370;2022-07-10T05:00:32;9.43;;;4.22;;
21527;SDS011;10925;49.102;-0.370;2022-07-10T05:02:57;4.97;;;4.47;;
21527;SDS011;10925;49.102;-0.370;2022-07-10T05:05:24;9.20;;;4.32;;
21527;SDS011;10925;49.102;-0.370;2022-07-10T05:07:51;7.00;;;4.57;;
21527;SDS011;10925;49.102;-0.370;2022-07-10T05:10:17;5.93;;;4.07;;
21527;SDS011;10925;49.102;-0.370;2022-07-10T05:12:44;4.38;;;3.08;;
21527;SDS011;10925;49.102;-0.370;2022-07-10T05:15:11;4.72;;;2.60;;
21527;SDS011;10925;49.102;-0.370;2022-07-10T05:17:37;3.72;;;2.38;;
21527;SDS011;10925;49.102;-0.370;2022-07-10T05:20:04;3.28;;;2.30;;
21527;SDS011;10925;49.102;-0.370;2022-07-10T05:22:31;3.08;;;2.35;;
21527;SDS011;10925;49.102;-0.370;2022-07-10T05:24:56;4.05;;;2.75;;
21527;SDS011;10925;49.102;-0.370;2022-07-10T05:27:23;6.40;;;2.40;;
21527;SDS011;10925;49.102;-0.370;2022-07-10T05:29:51;5.07;;;2.45;;
21527;SDS011;10925;49.102;-0.370;2022-07-10T05:32:18;5.43;;;2.70;;
21527;SDS011;10925;49.102;-0.370;2022-07-10T05:34:45;5.32;;;2.67;;
21527;SDS011;10925;49.102;-0.370;2022-07-10T05:37:12;4.65;;;2.35;;
21527;SDS011;10925;49.102;-0.370;2022-07-10T05:42:05;3.42;;;2.13;;
21527;SDS011;10925;49.102;-0.370;2022-07-10T05:44:32;2.75;;;2.03;;
21527;SDS011;10925;49.102;-0.370;2022-07-10T05:46:57;4.53;;;2.22;;
21527;SDS011;10925;49.102;-0.370;2022-07-10T05:49:24;4.07;;;2.05;;
21527;SDS011;10925;49.102;-0.370;2022-07-10T05:51:51;3.70;;;1.95;;
21527;SDS011;10925;49.102;-0.370;2022-07-10T05:54:17;3.10;;;1.63;;
21527;SDS011;10925;49.102;-0.370;2022-07-10T05:56:44;5.43;;;1.63;;
21527;SDS011;10925;49.102;-0.370;2022-07-10T05:59:11;4.15;;;1.55;;
21527;SDS011;10925;49.102;-0.370;2022-07-10T06:01:38;2.78;;;1.50;;
21527;SDS011;10925;49.102;-0.370;2022-07-10T06:04:05;4.68;;;1.60;;
21527;SDS011;10925;49.102;-0.370;2022-07-10T06:06:31;6.65;;;2.95;;
21527;SDS011;10925;49.102;-0.370;2022-07-10T06:08:58;4.05;;;1.73;;
21527;SDS011;10925;49.102;-0.370;2022-07-10T06:11:25;3.17;;;1.60;;
21527;SDS011;10925;49.102;-0.370;2022-07-10T06:13:52;2.92;;;1.30;;
21527;SDS011;10925;49.102;-0.370;2022-07-10T06:16:18;2.88;;;1.40;;
21527;SDS011;10925;49.102;-0.370;2022-07-10T06:18:45;2.63;;;1.35;;
21527;SDS011;10925;49.102;-0.370;2022-07-10T06:21:12;2.25;;;1.42;;
21527;SDS011;10925;49.102;-0.370;2022-07-10T06:23:40;4.60;;;1.60;;
21527;SDS011;10925;49.102;-0.370;2022-07-10T06:26:06;3.58;;;1.58;;
21527;SDS011;10925;49.102;-0.370;2022-07-10T06:31:34;5.47;;;1.63;;
21527;SDS011;10925;49.102;-0.370;2022-07-10T06:34:01;3.90;;;1.40;;
21527;SDS011;10925;49.102;-0.370;2022-07-10T06:36:28;4.40;;;1.17;;
21527;SDS011;10925;49.102;-0.370;2022-07-10T06:38:59;3.15;;;1.30;;
21527;SDS011;10925;49.102;-0.370;2022-07-10T06:41:26;5.57;;;1.20;;
21527;SDS011;10925;49.102;-0.370;2022-07-10T06:43:52;2.17;;;1.30;;
21527;SDS011;10925;49.102;-0.370;2022-07-10T06:46:19;3.30;;;1.30;;
21527;SDS011;10925;49.102;-0.370;2022-07-10T06:48:46;3.90;;;1.13;;
21527;SDS011;10925;49.102;-0.370;2022-07-10T06:51:12;5.05;;;1.30;;
21527;SDS011;10925;49.102;-0.370;2022-07-10T06:53:43;2.90;;;1.30;;
21527;SDS011;10925;49.102;-0.370;2022-07-10T06:56:10;4.72;;;1.10;;
21527;SDS011;10925;49.102;-0.370;2022-07-10T06:58:37;3.42;;;1.25;;
21527;SDS011;10925;49.102;-0.370;2022-07-10T07:01:04;2.97;;;1.25;;
21527;SDS011;10925;49.102;-0.370;2022-07-10T07:03:31;4.38;;;1.08;;
21527;SDS011;10925;49.102;-0.370;2022-07-10T07:05:57;3.17;;;1.00;;
21527;SDS011;10925;49.102;-0.370;2022-07-10T07:08:24;2.55;;;0.98;;
21527;SDS011;10925;49.102;-0.370;2022-07-10T07:10:51;3.22;;;1.20;;
21527;SDS011;10925;49.102;-0.370;2022-07-10T07:13:17;2.78;;;1.20;;
21527;SDS011;10925;49.102;-0.370;2022-07-10T07:15:44;2.45;;;1.10;;
21527;SDS011;10925;49.102;-0.370;2022-07-10T07:18:18;3.70;;;1.13;;
21527;SDS011;10925;49.102;-0.370;2022-07-10T07:20:47;2.15;;;1.23;;
21527;SDS011;10925;49.102;-0.370;2022-07-10T07:23:33;2.47;;;1.20;;
21527;SDS011;10925;49.102;-0.370;2022-07-10T07:25:58;3.58;;;1.38;;
21527;SDS011;10925;49.102;-0.370;2022-07-10T07:28:25;3.15;;;1.23;;
21527;SDS011;10925;49.102;-0.370;2022-07-10T07:30:52;1.40;;;1.00;;
21527;SDS011;10925;49.102;-0.370;2022-07-10T07:33:17;4.22;;;1.10;;
21527;SDS011;10925;49.102;-0.370;2022-07-10T07:35:45;3.17;;;1.17;;
21527;SDS011;10925;49.102;-0.370;2022-07-10T07:38:11;4.20;;;0.95;;
21527;SDS011;10925;49.102;-0.370;2022-07-10T07:40:37;4.32;;;0.90;;
21527;SDS011;10925;49.102;-0.370;2022-07-10T07:43:04;3.33;;;0.90;;
21527;SDS011;10925;49.102;-0.370;2022-07-10T07:45:31;1.88;;;1.00;;
21527;SDS011;10925;49.102;-0.370;2022-07-10T07:47:57;3.97;;;1.15;;
21527;SDS011;10925;49.102;-0.370;2022-07-10T07:50:27;2.05;;;0.85;;
21527;SDS011;10925;49.102;-0.370;2022-07-10T07:52:54;3.28;;;1.10;;
21527;SDS011;10925;49.102;-0.370;2022-07-10T07:55:20;1.60;;;0.80;;
21527;SDS011;10925;49.102;-0.370;2022-07-10T07:57:46;1.80;;;0.93;;
21527;SDS011;10925;49.102;-0.370;2022-07-10T08:00:12;3.10;;;1.00;;
21527;SDS011;10925;49.102;-0.370;2022-07-10T08:02:40;2.90;;;1.00;;
21527;SDS011;10925;49.102;-0.370;2022-07-10T08:05:07;2.92;;;1.17;;
21527;SDS011;10925;49.102;-0.370;2022-07-10T08:07:41;1.83;;;1.00;;
21527;SDS011;10925;49.102;-0.370;2022-07-10T08:10:11;1.42;;;0.90;;
21527;SDS011;10925;49.102;-0.370;2022-07-10T08:12:38;3.83;;;1.08;;
21527;SDS011;10925;49.102;-0.370;2022-07-10T08:15:09;1.75;;;0.90;;
21527;SDS011;10925;49.102;-0.370;2022-07-10T08:17:36;1.70;;;1.15;;
21527;SDS011;10925;49.102;-0.370;2022-07-10T08:20:03;3.38;;;1.20;;
21527;SDS011;10925;49.102;-0.370;2022-07-10T08:22:31;2.05;;;1.13;;
21527;SDS011;10925;49.102;-0.370;2022-07-10T08:24:58;4.63;;;1.30;;
21527;SDS011;10925;49.102;-0.370;2022-07-10T08:27:25;1.70;;;0.90;;
21527;SDS011;10925;49.102;-0.370;2022-07-10T08:29:52;1.83;;;0.90;;
21527;SDS011;10925;49.102;-0.370;2022-07-10T08:32:18;2.55;;;1.20;;
21527;SDS011;10925;49.102;-0.370;2022-07-10T08:34:45;1.88;;;1.10;;
21527;SDS011;10925;49.102;-0.370;2022-07-10T08:37:12;3.60;;;1.10;;
21527;SDS011;10925;49.102;-0.370;2022-07-10T08:39:39;4.65;;;1.25;;
21527;SDS011;10925;49.102;-0.370;2022-07-10T08:42:06;2.75;;;1.10;;
21527;SDS011;10925;49.102;-0.370;2022-07-10T08:44:33;1.77;;;1.20;;
21527;SDS011;10925;49.102;-0.370;2022-07-10T08:46:59;3.00;;;1.55;;
21527;SDS011;10925;49.102;-0.370;2022-07-10T08:49:27;3.00;;;1.00;;
21527;SDS011;10925;49.102;-0.370;2022-07-10T08:51:58;3.00;;;1.15;;
21527;SDS011;10925;49.102;-0.370;2022-07-10T08:54:27;3.28;;;1.25;;
21527;SDS011;10925;49.102;-0.370;2022-07-10T08:56:54;2.40;;;1.13;;
21527;SDS011;10925;49.102;-0.370;2022-07-10T08:59:22;2.08;;;1.25;;
21527;SDS011;10925;49.102;-0.370;2022-07-10T09:01:48;2.88;;;1.02;;
21527;SDS011;10925;49.102;-0.370;2022-07-10T09:04:17;1.10;;;1.00;;
21527;SDS011;10925;49.102;-0.370;2022-07-10T09:06:44;2.67;;;1.10;;
21527;SDS011;10925;49.102;-0.370;2022-07-10T09:09:09;1.77;;;1.02;;
21527;SDS011;10925;49.102;-0.370;2022-07-10T09:11:36;2.17;;;1.20;;
21527;SDS011;10925;49.102;-0.370;2022-07-10T09:14:05;2.53;;;1.08;;
21527;SDS011;10925;49.102;-0.370;2022-07-10T09:16:40;1.67;;;1.00;;
21527;SDS011;10925;49.102;-0.370;2022-07-10T09:19:25;2.05;;;1.17;;
21527;SDS011;10925;49.102;-0.370;2022-07-10T09:21:53;2.97;;;1.10;;
21527;SDS011;10925;49.102;-0.370;2022-07-10T09:24:23;2.05;;;1.30;;
21527;SDS011;10925;49.102;-0.370;2022-07-10T09:29:21;3.95;;;1.40;;
21527;SDS011;10925;49.102;-0.370;2022-07-10T09:31:56;2.90;;;1.20;;
21527;SDS011;10925;49.102;-0.370;2022-07-10T09:34:38;4.03;;;1.35;;
21527;SDS011;10925;49.102;-0.370;2022-07-10T09:39:58;2.50;;;1.35;;
21527;SDS011;10925;49.102;-0.370;2022-07-10T09:42:25;2.00;;;1.00;;
21527;SDS011;10925;49.102;-0.370;2022-07-10T09:44:52;3.55;;;1.52;;
21527;SDS011;10925;49.102;-0.370;2022-07-10T09:47:23;2.45;;;1.23;;
21527;SDS011;10925;49.102;-0.370;2022-07-10T09:49:53;4.88;;;1.50;;
21527;SDS011;10925;49.102;-0.370;2022-07-10T09:52:18;4.07;;;1.13;;
21527;SDS011;10925;49.102;-0.370;2022-07-10T09:54:46;3.88;;;1.40;;
21527;SDS011;10925;49.102;-0.370;2022-07-10T09:57:13;4.05;;;1.50;;
21527;SDS011;10925;49.102;-0.370;2022-07-10T09:59:42;4.07;;;1.38;;
21527;SDS011;10925;49.102;-0.370;2022-07-10T10:02:09;3.38;;;1.33;;
21527;SDS011;10925;49.102;-0.370;2022-07-10T10:04:37;3.20;;;1.25;;
21527;SDS011;10925;49.102;-0.370;2022-07-10T10:07:06;2.45;;;1.20;;
21527;SDS011;10925;49.102;-0.370;2022-07-10T10:09:45;3.03;;;1.50;;
21527;SDS011;10925;49.102;-0.370;2022-07-10T10:12:17;3.35;;;1.23;;
21527;SDS011;10925;49.102;-0.370;2022-07-10T10:14:49;5.43;;;1.40;;
21527;SDS011;10925;49.102;-0.370;2022-07-10T10:17:16;5.75;;;1.60;;
21527;SDS011;10925;49.102;-0.370;2022-07-10T10:19:44;4.72;;;1.52;;
21527;SDS011;10925;49.102;-0.370;2022-07-10T10:22:28;2.28;;;1.55;;
21527;SDS011;10925;49.102;-0.370;2022-07-10T10:24:58;4.32;;;2.42;;
21527;SDS011;10925;49.102;-0.370;2022-07-10T10:27:25;9.40;;;5.28;;
21527;SDS011;10925;49.102;-0.370;2022-07-10T10:29:55;7.72;;;1.90;;
21527;SDS011;10925;49.102;-0.370;2022-07-10T10:32:22;2.88;;;1.35;;
21527;SDS011;10925;49.102;-0.370;2022-07-10T10:34:49;2.10;;;1.30;;
21527;SDS011;10925;49.102;-0.370;2022-07-10T10:39:55;3.90;;;1.40;;
21527;SDS011;10925;49.102;-0.370;2022-07-10T10:42:43;2.35;;;1.52;;
21527;SDS011;10925;49.102;-0.370;2022-07-10T10:45:31;4.55;;;1.35;;
21527;SDS011;10925;49.102;-0.370;2022-07-10T10:47:58;1.77;;;1.00;;
21527;SDS011;10925;49.102;-0.370;2022-07-10T10:50:37;4.40;;;1.27;;
21527;SDS011;10925;49.102;-0.370;2022-07-10T10:53:11;2.63;;;1.25;;
21527;SDS011;10925;49.102;-0.370;2022-07-10T10:55:38;2.65;;;1.17;;
21527;SDS011;10925;49.102;-0.370;2022-07-10T10:58:16;4.82;;;1.75;;
21527;SDS011;10925;49.102;-0.370;2022-07-10T11:00:44;21.65;;;11.75;;
21527;SDS011;10925;49.102;-0.370;2022-07-10T11:03:15;10.38;;;7.13;;
21527;SDS011;10925;49.102;-0.370;2022-07-10T11:05:42;1.58;;;1.00;;
21527;SDS011;10925;49.102;-0.370;2022-07-10T11:08:10;3.53;;;1.35;;
21527;SDS011;10925;49.102;-0.370;2022-07-10T11:13:13;2.88;;;1.38;;
21527;SDS011;10925;49.102;-0.370;2022-07-10T11:18:11;2.38;;;1.50;;
21527;SDS011;10925;49.102;-0.370;2022-07-10T11:20:39;3.75;;;1.20;;
21527;SDS011;10925;49.102;-0.370;2022-07-10T11:31:00;4.45;;;1.77;;
21527;SDS011;10925;49.102;-0.370;2022-07-10T11:33:27;3.80;;;1.50;;
21527;SDS011;10925;49.102;-0.370;2022-07-10T11:35:53;6.15;;;1.70;;
21527;SDS011;10925;49.102;-0.370;2022-07-10T11:38:21;4.88;;;1.67;;
21527;SDS011;10925;49.102;-0.370;2022-07-10T11:40:48;5.95;;;1.70;;
21527;SDS011;10925;49.102;-0.370;2022-07-10T11:43:16;2.00;;;1.63;;
21527;SDS011;10925;49.102;-0.370;2022-07-10T11:45:49;2.92;;;1.58;;
21527;SDS011;10925;49.102;-0.370;2022-07-10T11:48:18;3.47;;;1.90;;
21527;SDS011;10925;49.102;-0.370;2022-07-10T11:50:46;3.90;;;1.67;;
21527;SDS011;10925;49.102;-0.370;2022-07-10T11:53:12;7.25;;;1.70;;
21527;SDS011;10925;49.102;-0.370;2022-07-10T11:55:39;5.20;;;1.70;;
21527;SDS011;10925;49.102;-0.370;2022-07-10T11:58:16;4.13;;;1.58;;
21527;SDS011;10925;49.102;-0.370;2022-07-10T12:00:43;5.68;;;1.95;;
21527;SDS011;10925;49.102;-0.370;2022-07-10T12:03:19;5.63;;;2.28;;
21527;SDS011;10925;49.102;-0.370;2022-07-10T12:05:54;3.80;;;2.33;;
21527;SDS011;10925;49.102;-0.370;2022-07-10T12:08:21;7.75;;;5.72;;
21527;SDS011;10925;49.102;-0.370;2022-07-10T12:10:49;5.50;;;3.35;;
21527;SDS011;10925;49.102;-0.370;2022-07-10T12:13:16;5.75;;;2.88;;
21527;SDS011;10925;49.102;-0.370;2022-07-10T12:15:43;6.28;;;3.45;;
21527;SDS011;10925;49.102;-0.370;2022-07-10T12:18:20;6.60;;;2.42;;
21527;SDS011;10925;49.102;-0.370;2022-07-10T12:20:48;4.50;;;1.60;;
21527;SDS011;10925;49.102;-0.370;2022-07-10T12:23:16;6.07;;;2.05;;
21527;SDS011;10925;49.102;-0.370;2022-07-10T12:25:44;5.18;;;1.50;;
21527;SDS011;10925;49.102;-0.370;2022-07-10T12:28:11;2.55;;;1.35;;
21527;SDS011;10925;49.102;-0.370;2022-07-10T12:30:40;4.90;;;1.60;;
21527;SDS011;10925;49.102;-0.370;2022-07-10T12:33:12;5.28;;;2.00;;
21527;SDS011;10925;49.102;-0.370;2022-07-10T12:38:20;2.67;;;1.50;;
21527;SDS011;10925;49.102;-0.370;2022-07-10T12:40:47;4.07;;;1.65;;
21527;SDS011;10925;49.102;-0.370;2022-07-10T12:43:27;3.60;;;1.60;;
21527;SDS011;10925;49.102;-0.370;2022-07-10T12:46:10;5.68;;;1.60;;
21527;SDS011;10925;49.102;-0.370;2022-07-10T12:48:38;3.05;;;1.50;;
21527;SDS011;10925;49.102;-0.370;2022-07-10T12:51:21;6.05;;;1.65;;
21527;SDS011;10925;49.102;-0.370;2022-07-10T12:53:48;4.63;;;1.30;;
21527;SDS011;10925;49.102;-0.370;2022-07-10T12:56:26;5.57;;;1.52;;
21527;SDS011;10925;49.102;-0.370;2022-07-10T12:58:52;3.28;;;1.58;;
21527;SDS011;10925;49.102;-0.370;2022-07-10T13:01:19;4.60;;;1.40;;
21527;SDS011;10925;49.102;-0.370;2022-07-10T13:03:46;2.00;;;1.45;;
21527;SDS011;10925;49.102;-0.370;2022-07-10T13:09:22;2.33;;;1.45;;
21527;SDS011;10925;49.102;-0.370;2022-07-10T13:11:50;5.68;;;1.63;;
21527;SDS011;10925;49.102;-0.370;2022-07-10T13:14:19;8.13;;;1.85;;
21527;SDS011;10925;49.102;-0.370;2022-07-10T13:16:45;3.85;;;1.42;;
21527;SDS011;10925;49.102;-0.370;2022-07-10T13:19:13;2.15;;;1.30;;
21527;SDS011;10925;49.102;-0.370;2022-07-10T13:21:38;4.45;;;1.50;;
21527;SDS011;10925;49.102;-0.370;2022-07-10T13:24:05;2.33;;;1.20;;
21527;SDS011;10925;49.102;-0.370;2022-07-10T13:26:32;3.38;;;1.30;;
21527;SDS011;10925;49.102;-0.370;2022-07-10T13:28:58;5.10;;;1.50;;
21527;SDS011;10925;49.102;-0.370;2022-07-10T13:31:24;4.28;;;1.73;;
21527;SDS011;10925;49.102;-0.370;2022-07-10T13:33:51;4.28;;;1.52;;
21527;SDS011;10925;49.102;-0.370;2022-07-10T13:36:18;7.05;;;1.67;;
21527;SDS011;10925;49.102;-0.370;2022-07-10T13:38:45;6.95;;;1.58;;
21527;SDS011;10925;49.102;-0.370;2022-07-10T13:41:13;5.95;;;1.30;;
21527;SDS011;10925;49.102;-0.370;2022-07-10T13:43:40;4.20;;;1.60;;
21527;SDS011;10925;49.102;-0.370;2022-07-10T13:46:07;7.40;;;1.50;;
21527;SDS011;10925;49.102;-0.370;2022-07-10T13:48:34;2.67;;;1.23;;
21527;SDS011;10925;49.102;-0.370;2022-07-10T13:51:01;4.07;;;1.30;;
21527;SDS011;10925;49.102;-0.370;2022-07-10T13:53:27;3.65;;;1.38;;
21527;SDS011;10925;49.102;-0.370;2022-07-10T13:55:54;4.68;;;1.60;;
21527;SDS011;10925;49.102;-0.370;2022-07-10T13:58:21;3.70;;;1.20;;
21527;SDS011;10925;49.102;-0.370;2022-07-10T14:00:48;3.35;;;1.30;;
21527;SDS011;10925;49.102;-0.370;2022-07-10T14:03:15;4.35;;;1.40;;
21527;SDS011;10925;49.102;-0.370;2022-07-10T14:05:42;4.20;;;1.45;;
21527;SDS011;10925;49.102;-0.370;2022-07-10T14:08:09;3.80;;;1.10;;
21527;SDS011;10925;49.102;-0.370;2022-07-10T14:10:34;2.85;;;1.23;;
21527;SDS011;10925;49.102;-0.370;2022-07-10T14:13:01;4.85;;;1.65;;
21527;SDS011;10925;49.102;-0.370;2022-07-10T14:15:36;3.13;;;1.45;;
21527;SDS011;10925;49.102;-0.370;2022-07-10T14:18:02;4.10;;;1.35;;
21527;SDS011;10925;49.102;-0.370;2022-07-10T14:20:29;6.13;;;1.50;;
21527;SDS011;10925;49.102;-0.370;2022-07-10T14:25:41;4.57;;;1.67;;
21527;SDS011;10925;49.102;-0.370;2022-07-10T14:28:08;7.47;;;1.45;;
21527;SDS011;10925;49.102;-0.370;2022-07-10T14:30:36;3.97;;;1.48;;
21527;SDS011;10925;49.102;-0.370;2022-07-10T14:33:01;9.98;;;1.67;;
21527;SDS011;10925;49.102;-0.370;2022-07-10T14:35:26;6.00;;;1.52;;
21527;SDS011;10925;49.102;-0.370;2022-07-10T14:37:52;3.47;;;1.40;;
21527;SDS011;10925;49.102;-0.370;2022-07-10T14:40:22;4.95;;;1.70;;
21527;SDS011;10925;49.102;-0.370;2022-07-10T14:42:49;5.18;;;1.48;;
21527;SDS011;10925;49.102;-0.370;2022-07-10T14:45:19;4.22;;;1.50;;
21527;SDS011;10925;49.102;-0.370;2022-07-10T14:48:08;5.10;;;1.30;;
21527;SDS011;10925;49.102;-0.370;2022-07-10T14:50:37;4.05;;;1.25;;
21527;SDS011;10925;49.102;-0.370;2022-07-10T14:53:03;6.32;;;1.48;;
21527;SDS011;10925;49.102;-0.370;2022-07-10T14:55:35;4.28;;;1.67;;
21527;SDS011;10925;49.102;-0.370;2022-07-10T14:58:02;5.60;;;1.55;;
21527;SDS011;10925;49.102;-0.370;2022-07-10T15:00:29;3.08;;;1.33;;
21527;SDS011;10925;49.102;-0.370;2022-07-10T15:03:00;4.32;;;1.83;;
21527;SDS011;10925;49.102;-0.370;2022-07-10T15:05:25;3.55;;;1.25;;
21527;SDS011;10925;49.102;-0.370;2022-07-10T15:07:56;2.78;;;1.50;;
21527;SDS011;10925;49.102;-0.370;2022-07-10T15:10:25;5.80;;;1.55;;
21527;SDS011;10925;49.102;-0.370;2022-07-10T15:12:51;3.45;;;1.73;;
21527;SDS011;10925;49.102;-0.370;2022-07-10T15:15:17;3.67;;;1.45;;